createdAt,value
2023-02-23T00:00:48.481Z,94832.31
2023-02-23T00:03:15.017Z,94836.56
2023-02-23T00:05:42.530Z,94839.09
2023-02-23T00:08:10.287Z,94839.47
2023-02-23T00:10:36.822Z,94832.88
2023-02-23T00:13:04.259Z,94824.44
2023-02-23T00:15:30.760Z,94832.63
2023-02-23T00:17:57.645Z,94836.03
2023-02-23T00:20:26.887Z,94832.09
2023-02-23T00:22:55.162Z,94834.03
2023-02-23T00:25:22.672Z,94837.16
2023-02-23T00:27:49.576Z,94833.84
2023-02-23T00:30:17.873Z,94837.97
2023-02-23T00:32:49.535Z,94838.97
2023-02-23T00:35:18.358Z,94834.50
2023-02-23T00:37:45.632Z,94835.69
2023-02-23T00:40:16.203Z,94825.13
2023-02-23T00:42:44.848Z,94840.38
2023-02-23T00:45:12.381Z,94834.03
2023-02-23T00:47:41.617Z,94840.56
2023-02-23T00:50:12.152Z,94831.16
2023-02-23T00:52:39.509Z,94837.13
2023-02-23T00:55:07.804Z,94837.84
2023-02-23T00:57:35.352Z,94834.81
2023-02-23T01:00:12.423Z,94840.53
2023-02-23T01:02:38.928Z,94839.41
2023-02-23T01:05:05.936Z,94844.88
2023-02-23T01:07:32.510Z,94838.47
2023-02-23T01:09:58.937Z,94842.59
2023-02-23T01:12:25.403Z,94842.03
2023-02-23T01:14:52.830Z,94835.94
2023-02-23T01:17:19.222Z,94835.34
2023-02-23T01:19:45.736Z,94841.59
2023-02-23T01:22:12.189Z,94839.78
2023-02-23T01:24:40.182Z,94837.13
2023-02-23T01:27:06.700Z,94845.56
2023-02-23T01:29:33.785Z,94843.09
2023-02-23T01:32:03.256Z,94842.97
2023-02-23T01:34:30.862Z,94841.97
2023-02-23T01:36:57.331Z,94849.44
2023-02-23T01:39:23.842Z,94844.78
2023-02-23T01:41:51.875Z,94852.31
2023-02-23T01:44:55.669Z,94839.56
2023-02-23T01:47:23.204Z,94850.00
2023-02-23T01:49:50.221Z,94849.03
2023-02-23T01:52:17.415Z,94844.06
2023-02-23T01:54:50.647Z,94846.44
2023-02-23T01:57:19.910Z,94838.91
2023-02-23T01:59:49.625Z,94831.41
2023-02-23T02:02:18.492Z,94831.13
2023-02-23T02:04:45.751Z,94819.97
2023-02-23T02:07:15.899Z,94822.41
2023-02-23T02:10:04.043Z,94811.06
2023-02-23T02:12:30.852Z,94805.41
2023-02-23T02:14:59.639Z,94821.75
2023-02-23T02:17:34.878Z,94821.81
2023-02-23T02:20:53.558Z,94822.22
2023-02-23T02:24:01.600Z,94812.25
2023-02-23T02:26:36.688Z,94803.53
2023-02-23T02:29:40.413Z,94812.16
2023-02-23T02:32:41.231Z,94812.97
2023-02-23T02:35:49.835Z,94812.16
2023-02-23T02:38:28.740Z,94812.38
2023-02-23T02:41:03.542Z,94805.22
2023-02-23T02:43:39.890Z,94804.31
2023-02-23T02:46:13.951Z,94804.16
2023-02-23T02:48:48.151Z,94806.88
2023-02-23T02:51:23.645Z,94802.50
2023-02-23T02:53:58.419Z,94810.56
2023-02-23T02:56:26.760Z,94800.50
2023-02-23T02:58:55.385Z,94805.47
2023-02-23T03:01:39.983Z,94806.50
2023-02-23T03:04:39.798Z,94807.63
2023-02-23T03:07:34.372Z,94806.47
2023-02-23T03:10:27.979Z,94807.78
2023-02-23T03:13:19.094Z,94794.81
2023-02-23T03:16:16.673Z,94807.22
2023-02-23T03:19:17.206Z,94804.16
2023-02-23T03:22:08.901Z,94802.06
2023-02-23T03:25:00.020Z,94802.09
2023-02-23T03:27:54.630Z,94810.31
2023-02-23T03:30:43.854Z,94799.94
2023-02-23T03:33:34.273Z,94805.81
2023-02-23T03:36:26.610Z,94801.22
2023-02-23T03:39:17.703Z,94802.66
2023-02-23T03:42:04.950Z,94808.91
2023-02-23T03:44:55.217Z,94806.00
2023-02-23T03:47:45.183Z,94808.97
2023-02-23T03:50:35.949Z,94815.31
2023-02-23T03:53:22.954Z,94809.41
2023-02-23T03:56:13.088Z,94812.34
2023-02-23T03:59:04.736Z,94812.66
2023-02-23T04:01:51.448Z,94808.88
2023-02-23T04:04:38.328Z,94815.44
2023-02-23T04:07:24.956Z,94818.41
2023-02-23T04:10:10.043Z,94816.63
2023-02-23T04:13:02.492Z,94812.50
2023-02-23T04:15:36.421Z,94817.88
2023-02-23T04:18:04.649Z,94814.53
2023-02-23T04:20:31.290Z,94815.00
2023-02-23T04:22:58.114Z,94818.84
2023-02-23T04:25:26.108Z,94815.84
2023-02-23T04:27:53.085Z,94818.00
2023-02-23T04:30:20.042Z,94809.38
2023-02-23T04:32:46.542Z,94809.25
2023-02-23T04:35:13.666Z,94817.06
2023-02-23T04:37:40.067Z,94813.72
2023-02-23T04:40:07.753Z,94815.75
2023-02-23T04:42:34.145Z,94813.22
2023-02-23T04:45:00.619Z,94809.50
2023-02-23T04:47:27.063Z,94816.63
2023-02-23T04:49:53.568Z,94818.09
2023-02-23T04:52:20.614Z,94810.72
2023-02-23T04:54:47.420Z,94820.22
2023-02-23T04:57:13.852Z,94818.56
2023-02-23T04:59:40.837Z,94827.19
2023-02-23T05:02:07.471Z,94822.44
2023-02-23T05:04:34.542Z,94823.41
2023-02-23T05:07:01.045Z,94835.19
2023-02-23T05:09:28.047Z,94822.66
2023-02-23T05:11:54.830Z,94828.09
2023-02-23T05:14:29.067Z,94834.78
2023-02-23T05:16:57.205Z,94817.19
2023-02-23T05:19:24.075Z,94826.25
2023-02-23T05:21:50.518Z,94829.31
2023-02-23T05:24:17.629Z,94823.31
2023-02-23T05:26:44.786Z,94823.47
2023-02-23T05:29:11.598Z,94827.06
2023-02-23T05:31:38.201Z,94827.16
2023-02-23T05:34:04.817Z,94833.06
2023-02-23T05:36:31.265Z,94829.81
2023-02-23T05:38:57.760Z,94834.50
2023-02-23T05:41:24.172Z,94827.06
2023-02-23T05:43:52.922Z,94833.69
2023-02-23T05:46:21.628Z,94836.22
2023-02-23T05:48:48.112Z,94832.41
2023-02-23T05:51:15.559Z,94826.88
2023-02-23T05:53:42.478Z,94837.19
2023-02-23T05:56:12.295Z,94835.25
2023-02-23T05:58:38.801Z,94834.81
2023-02-23T06:01:05.980Z,94840.53
2023-02-23T06:03:33.194Z,94839.44
2023-02-23T06:05:59.647Z,94840.91
2023-02-23T06:08:39.644Z,94849.84
2023-02-23T06:11:06.380Z,94836.50
2023-02-23T06:13:33.020Z,94844.75
2023-02-23T06:15:59.788Z,94854.81
2023-02-23T06:18:27.778Z,94848.50
2023-02-23T06:20:54.750Z,94854.00
2023-02-23T06:23:21.279Z,94848.13
2023-02-23T06:25:47.730Z,94851.47
2023-02-23T06:28:14.559Z,94865.81
2023-02-23T06:30:41.183Z,94864.59
2023-02-23T06:33:07.773Z,94867.72
2023-02-23T06:35:35.411Z,94871.59
2023-02-23T06:38:02.948Z,94857.91
2023-02-23T06:40:29.987Z,94865.78
2023-02-23T06:42:56.762Z,94873.97
2023-02-23T06:45:23.271Z,94874.63
2023-02-23T06:47:53.011Z,94882.75
2023-02-23T06:50:19.858Z,94879.53
2023-02-23T06:52:48.016Z,94880.25
2023-02-23T06:55:14.895Z,94878.72
2023-02-23T06:57:41.891Z,94888.22
2023-02-23T07:00:09.790Z,94886.22
2023-02-23T07:02:36.828Z,94880.69
2023-02-23T07:05:03.813Z,94859.25
2023-02-23T07:07:30.206Z,94872.31
2023-02-23T07:09:57.254Z,94881.25
2023-02-23T07:12:23.920Z,94869.03
2023-02-23T07:14:50.378Z,94874.78
2023-02-23T07:17:17.263Z,94871.25
2023-02-23T07:19:44.027Z,94874.53
2023-02-23T07:22:10.488Z,94878.06
2023-02-23T07:24:37.756Z,94875.56
2023-02-23T07:27:04.871Z,94872.06
2023-02-23T07:29:31.318Z,94875.69
2023-02-23T07:31:57.812Z,94877.28
2023-02-23T07:34:24.523Z,94878.50
2023-02-23T07:36:50.972Z,94878.19
2023-02-23T07:39:17.374Z,94885.16
2023-02-23T07:41:43.877Z,94881.50
2023-02-23T07:44:18.632Z,94882.69
2023-02-23T07:46:45.648Z,94877.56
2023-02-23T07:49:12.379Z,94884.53
2023-02-23T07:51:39.319Z,94894.19
2023-02-23T07:54:06.038Z,94888.31
2023-02-23T07:56:32.959Z,94893.50
2023-02-23T07:58:59.456Z,94889.00
2023-02-23T08:01:26.766Z,94894.50
2023-02-23T08:03:53.287Z,94894.69
2023-02-23T08:06:20.307Z,94890.97
2023-02-23T08:08:46.718Z,94901.03
2023-02-23T08:11:13.427Z,94898.69
2023-02-23T08:13:39.858Z,94894.72
2023-02-23T08:16:07.045Z,94901.84
2023-02-23T08:18:34.631Z,94902.03
2023-02-23T08:21:03.178Z,94904.03
2023-02-23T08:23:30.841Z,94902.09
2023-02-23T08:26:03.441Z,94902.47
2023-02-23T08:28:30.633Z,94900.50
2023-02-23T08:30:58.502Z,94893.03
2023-02-23T08:33:25.087Z,94899.94
2023-02-23T08:35:52.812Z,94897.97
2023-02-23T08:38:19.312Z,94898.16
2023-02-23T08:40:45.741Z,94901.72
2023-02-23T08:43:12.126Z,94899.53
2023-02-23T08:45:38.846Z,94897.94
2023-02-23T08:48:06.034Z,94895.78
2023-02-23T08:50:32.502Z,94889.09
2023-02-23T08:52:59.511Z,94896.59
2023-02-23T08:55:26.353Z,94897.56
2023-02-23T08:57:52.951Z,94896.38
2023-02-23T09:00:20.511Z,94893.41
2023-02-23T09:02:49.770Z,94891.06
2023-02-23T09:05:17.137Z,94896.38
2023-02-23T09:07:44.990Z,94898.94
2023-02-23T09:10:14.131Z,94894.41
2023-02-23T09:12:40.615Z,94894.22
2023-02-23T09:15:08.372Z,94899.72
2023-02-23T09:17:34.800Z,94899.94
2023-02-23T09:20:01.355Z,94900.09
2023-02-23T09:22:27.757Z,94908.81
2023-02-23T09:24:54.156Z,94903.84
2023-02-23T09:27:21.213Z,94897.56
2023-02-23T09:29:47.848Z,94906.97
2023-02-23T09:32:14.292Z,94905.00
2023-02-23T09:34:40.781Z,94910.72
2023-02-23T09:37:07.896Z,94903.44
2023-02-23T09:39:38.394Z,94908.00
2023-02-23T09:42:15.618Z,94901.69
2023-02-23T09:44:57.941Z,94912.50
2023-02-23T09:47:32.037Z,94914.47
2023-02-23T09:50:02.210Z,94911.69
2023-02-23T09:52:39.121Z,94916.59
2023-02-23T09:55:10.174Z,94915.84
2023-02-23T09:57:39.502Z,94918.34
2023-02-23T10:00:16.689Z,94925.06
2023-02-23T10:02:57.225Z,94919.34
2023-02-23T10:05:27.441Z,94920.50
2023-02-23T10:07:59.420Z,94920.50
2023-02-23T10:10:35.025Z,94923.50
2023-02-23T10:13:09.513Z,94914.41
2023-02-23T10:15:44.720Z,94921.81
2023-02-23T10:18:35.913Z,94914.13
2023-02-23T10:21:16.772Z,94923.25
2023-02-23T10:23:48.899Z,94910.56
2023-02-23T10:26:19.816Z,94923.13
2023-02-23T10:28:46.903Z,94916.56
2023-02-23T10:31:28.543Z,94915.75
2023-02-23T10:33:58.567Z,94916.66
2023-02-23T10:36:34.578Z,94920.84
2023-02-23T10:39:01.579Z,94917.59
2023-02-23T10:41:27.989Z,94920.25
2023-02-23T10:43:54.687Z,94918.56
2023-02-23T10:46:29.062Z,94916.31
2023-02-23T10:48:56.576Z,94918.00
2023-02-23T10:51:28.743Z,94909.69
2023-02-23T10:53:55.257Z,94915.56
2023-02-23T10:56:23.122Z,94916.75
2023-02-23T10:58:51.457Z,94917.06
2023-02-23T11:01:35.402Z,94913.97
2023-02-23T11:04:15.860Z,94911.72
2023-02-23T11:06:42.852Z,94915.81
2023-02-23T11:09:24.838Z,94908.50
2023-02-23T11:11:57.649Z,94910.34
2023-02-23T11:14:27.017Z,94902.22
2023-02-23T11:16:55.865Z,94904.72
2023-02-23T11:19:26.343Z,94916.94
2023-02-23T11:21:52.849Z,94905.81
2023-02-23T11:24:24.487Z,94905.59
2023-02-23T11:26:53.814Z,94901.41
2023-02-23T11:29:32.694Z,94890.56
2023-02-23T11:32:09.578Z,94892.94
2023-02-23T11:34:40.001Z,94898.47
2023-02-23T11:37:19.357Z,94885.31
2023-02-23T11:39:51.729Z,94885.88
2023-02-23T11:42:20.129Z,94871.06
2023-02-23T11:45:02.264Z,94867.16
2023-02-23T11:47:31.139Z,94870.72
2023-02-23T11:49:57.908Z,94870.31
2023-02-23T11:52:27.164Z,94878.34
2023-02-23T11:54:57.020Z,94869.06
2023-02-23T11:57:27.542Z,94858.44
2023-02-23T11:59:55.950Z,94864.78
2023-02-23T12:02:25.005Z,94855.59
2023-02-23T12:05:01.619Z,94848.31
2023-02-23T12:07:40.890Z,94853.69
2023-02-23T12:10:14.442Z,94853.75
2023-02-23T12:12:50.909Z,94844.59
2023-02-23T12:15:26.936Z,94842.03
2023-02-23T12:17:57.683Z,94851.47
2023-02-23T12:20:28.874Z,94848.88
2023-02-23T12:22:59.228Z,94835.75
2023-02-23T12:25:29.351Z,94840.72
2023-02-23T12:28:18.173Z,94835.81
2023-02-23T12:30:50.188Z,94837.16
2023-02-23T12:33:22.362Z,94836.09
2023-02-23T12:35:55.017Z,94829.72
2023-02-23T12:38:33.364Z,94825.59
2023-02-23T12:41:06.211Z,94828.34
2023-02-23T12:43:39.027Z,94821.78
2023-02-23T12:46:11.740Z,94828.28
2023-02-23T12:48:48.250Z,94833.53
2023-02-23T12:51:27.206Z,94826.38
2023-02-23T12:53:53.708Z,94831.91
2023-02-23T12:56:35.152Z,94829.09
2023-02-23T12:59:21.202Z,94826.28
2023-02-23T13:01:54.243Z,94823.44
2023-02-23T13:04:39.489Z,94820.66
2023-02-23T13:07:16.255Z,94822.31
2023-02-23T13:09:53.996Z,94824.97
2023-02-23T13:12:38.447Z,94811.75
2023-02-23T13:15:19.352Z,94817.84
2023-02-23T13:17:55.771Z,94818.03
2023-02-23T13:20:30.294Z,94814.28
2023-02-23T13:23:08.784Z,94821.38
2023-02-23T13:25:44.482Z,94822.69
2023-02-23T13:28:17.953Z,94818.97
2023-02-23T13:30:46.725Z,94823.38
2023-02-23T13:33:34.964Z,94825.63
2023-02-23T13:36:12.056Z,94814.06
2023-02-23T13:38:45.857Z,94807.56
2023-02-23T13:41:28.869Z,94814.41
2023-02-23T13:44:01.546Z,94815.53
2023-02-23T13:46:36.577Z,94818.28
2023-02-23T13:49:16.109Z,94811.78
2023-02-23T13:51:47.134Z,94814.03
2023-02-23T13:54:24.724Z,94814.59
2023-02-23T13:56:55.348Z,94813.94
2023-02-23T13:59:23.458Z,94793.94
2023-02-23T14:01:52.764Z,94808.47
2023-02-23T14:04:22.887Z,94809.25
2023-02-23T14:06:55.855Z,94800.50
2023-02-23T14:09:29.504Z,94807.66
2023-02-23T14:12:02.946Z,94807.94
2023-02-23T14:14:44.716Z,94806.78
2023-02-23T14:17:38.095Z,94807.72
2023-02-23T14:20:24.326Z,94807.94
2023-02-23T14:23:26.099Z,94807.00
2023-02-23T14:26:10.812Z,94806.28
2023-02-23T14:28:39.745Z,94797.63
2023-02-23T14:31:19.904Z,94794.06
2023-02-23T14:33:56.293Z,94800.94
2023-02-23T14:36:37.680Z,94798.88
2023-02-23T14:39:08.950Z,94793.63
2023-02-23T14:41:43.496Z,94791.34
2023-02-23T14:44:28.299Z,94796.28
2023-02-23T14:47:01.064Z,94777.50
2023-02-23T14:49:30.811Z,94792.53
2023-02-23T14:51:59.898Z,94794.06
2023-02-23T14:54:30.906Z,94797.09
2023-02-23T14:57:00.094Z,94796.28
2023-02-23T14:59:28.961Z,94789.75
2023-02-23T15:01:59.806Z,94789.38
2023-02-23T15:04:29.173Z,94795.16
2023-02-23T15:06:58.510Z,94787.75
2023-02-23T15:09:32.381Z,94791.22
2023-02-23T15:12:10.985Z,94806.22
2023-02-23T15:14:38.251Z,94802.13
2023-02-23T15:17:05.235Z,94796.06
2023-02-23T15:19:35.136Z,94804.56
2023-02-23T15:22:04.674Z,94801.06
2023-02-23T15:24:40.738Z,94788.50
2023-02-23T15:27:16.806Z,94792.03
2023-02-23T15:29:43.414Z,94787.31
2023-02-23T15:32:17.512Z,94794.63
2023-02-23T15:34:44.338Z,94789.09
2023-02-23T15:37:19.152Z,94781.19
2023-02-23T15:39:52.546Z,94781.78
2023-02-23T15:42:25.126Z,94781.91
2023-02-23T15:45:16.225Z,94779.81
2023-02-23T15:47:52.211Z,94780.78
2023-02-23T15:50:36.002Z,94781.22
2023-02-23T15:53:08.176Z,94786.31
2023-02-23T15:55:37.222Z,94779.03
2023-02-23T15:58:17.255Z,94789.47
2023-02-23T16:00:50.503Z,94790.06
2023-02-23T16:03:23.773Z,94773.91
2023-02-23T16:05:59.003Z,94792.78
2023-02-23T16:08:26.463Z,94773.25
2023-02-23T16:11:01.639Z,94783.47
2023-02-23T16:13:29.076Z,94780.47
2023-02-23T16:15:56.968Z,94780.63
2023-02-23T16:18:35.897Z,94786.59
2023-02-23T16:21:05.215Z,94786.03
2023-02-23T16:23:36.383Z,94784.66
2023-02-23T16:26:10.755Z,94786.06
2023-02-23T16:28:45.558Z,94790.06
2023-02-23T16:31:20.257Z,94787.13
2023-02-23T16:33:54.161Z,94778.25
2023-02-23T16:36:23.625Z,94790.28
2023-02-23T16:38:59.823Z,94790.88
2023-02-23T16:41:29.021Z,94789.91
2023-02-23T16:44:00.577Z,94790.66
2023-02-23T16:46:31.829Z,94784.75
2023-02-23T16:49:04.513Z,94784.41
2023-02-23T16:51:34.893Z,94773.38
2023-02-23T16:54:04.686Z,94775.38
2023-02-23T16:56:31.921Z,94784.47
2023-02-23T16:59:02.691Z,94786.66
2023-02-23T17:01:30.292Z,94784.50
2023-02-23T17:03:58.387Z,94765.81
2023-02-23T17:06:25.623Z,94776.44
2023-02-23T17:08:57.955Z,94774.63
2023-02-23T17:11:25.990Z,94777.78
2023-02-23T17:13:53.016Z,94777.38
2023-02-23T17:16:24.151Z,94781.28
2023-02-23T17:18:51.664Z,94782.63
2023-02-23T17:21:23.374Z,94781.41
2023-02-23T17:23:51.577Z,94786.28
2023-02-23T17:26:21.571Z,94784.47
2023-02-23T17:28:51.680Z,94785.22
2023-02-23T17:31:22.293Z,94790.91
2023-02-23T17:33:52.781Z,94781.81
2023-02-23T17:36:19.468Z,94782.16
2023-02-23T17:38:46.188Z,94785.31
2023-02-23T17:41:16.012Z,94774.50
2023-02-23T17:43:42.814Z,94788.88
2023-02-23T17:46:10.766Z,94790.38
2023-02-23T17:48:37.291Z,94790.09
2023-02-23T17:51:08.290Z,94802.63
2023-02-23T17:53:35.588Z,94804.34
2023-02-23T17:56:02.369Z,94798.41
2023-02-23T17:58:28.930Z,94785.03
2023-02-23T18:00:56.424Z,94788.75
2023-02-23T18:03:23.917Z,94785.84
2023-02-23T18:05:52.015Z,94799.94
2023-02-23T18:08:19.577Z,94794.34
2023-02-23T18:10:51.006Z,94791.75
2023-02-23T18:13:18.040Z,94791.72
2023-02-23T18:15:48.982Z,94792.59
2023-02-23T18:18:16.692Z,94782.53
2023-02-23T18:20:48.956Z,94795.16
2023-02-23T18:23:16.205Z,94785.72
2023-02-23T18:25:43.671Z,94791.38
2023-02-23T18:28:14.435Z,94784.69
2023-02-23T18:30:42.496Z,94788.97
2023-02-23T18:33:12.450Z,94791.03
2023-02-23T18:35:44.432Z,94785.84
2023-02-23T18:38:13.128Z,94789.72
2023-02-23T18:40:40.358Z,94788.22
2023-02-23T18:43:11.050Z,94781.16
2023-02-23T18:45:38.856Z,94776.19
2023-02-23T18:48:09.707Z,94783.34
2023-02-23T18:50:37.996Z,94787.22
2023-02-23T18:53:05.656Z,94793.09
2023-02-23T18:55:32.291Z,94797.81
2023-02-23T18:57:59.284Z,94790.44
2023-02-23T19:00:54.638Z,94793.78
2023-02-23T19:03:21.079Z,94793.97
2023-02-23T19:05:52.115Z,94798.00
2023-02-23T19:08:18.854Z,94784.25
2023-02-23T19:10:45.549Z,94790.31
2023-02-23T19:13:12.080Z,94782.84
2023-02-23T19:15:39.974Z,94791.75
2023-02-23T19:18:07.062Z,94790.91
2023-02-23T19:20:34.904Z,94781.53
2023-02-23T19:23:02.171Z,94784.06
2023-02-23T19:25:28.690Z,94790.66
2023-02-23T19:27:56.172Z,94781.88
2023-02-23T19:30:22.693Z,94780.00
2023-02-23T19:32:49.700Z,94785.28
2023-02-23T19:35:18.633Z,94790.19
2023-02-23T19:37:49.914Z,94792.28
2023-02-23T19:40:23.141Z,94800.66
2023-02-23T19:42:52.346Z,94797.47
2023-02-23T19:45:19.331Z,94789.06
2023-02-23T19:47:46.091Z,94790.38
2023-02-23T19:50:16.079Z,94795.19
2023-02-23T19:52:44.584Z,94797.03
2023-02-23T19:55:11.630Z,94794.50
2023-02-23T19:57:41.635Z,94794.31
2023-02-23T20:00:11.324Z,94795.47
2023-02-23T20:02:42.914Z,94790.47
2023-02-23T20:05:10.952Z,94792.13
2023-02-23T20:07:38.162Z,94798.72
2023-02-23T20:10:07.718Z,94798.00
2023-02-23T20:12:34.967Z,94789.81
2023-02-23T20:15:02.125Z,94785.00
2023-02-23T20:17:31.838Z,94799.63
2023-02-23T20:19:58.425Z,94788.00
2023-02-23T20:22:24.910Z,94791.66
2023-02-23T20:24:51.503Z,94799.03
2023-02-23T20:27:21.922Z,94795.00
2023-02-23T20:29:49.915Z,94795.00
2023-02-23T20:32:19.419Z,94793.00
2023-02-23T20:34:46.912Z,94798.78
2023-02-23T20:37:13.722Z,94796.75
2023-02-23T20:39:40.442Z,94796.41
2023-02-23T20:42:06.903Z,94780.91
2023-02-23T20:44:34.698Z,94783.97
2023-02-23T20:47:02.412Z,94779.84
2023-02-23T20:49:34.343Z,94775.66
2023-02-23T20:52:02.462Z,94780.63
2023-02-23T20:54:29.114Z,94779.50
2023-02-23T20:56:58.596Z,94780.03
2023-02-23T20:59:28.658Z,94781.88
2023-02-23T21:01:55.853Z,94776.53
2023-02-23T21:04:22.562Z,94777.94
2023-02-23T21:06:49.192Z,94775.03
2023-02-23T21:09:16.599Z,94778.81
2023-02-23T21:11:44.019Z,94783.34
2023-02-23T21:14:10.607Z,94779.16
2023-02-23T21:16:45.625Z,94780.03
2023-02-23T21:19:20.417Z,94765.19
2023-02-23T21:21:48.780Z,94766.44
2023-02-23T21:24:18.821Z,94768.63
2023-02-23T21:26:46.021Z,94764.75
2023-02-23T21:29:14.076Z,94760.81
2023-02-23T21:31:41.603Z,94762.22
2023-02-23T21:34:09.134Z,94766.88
2023-02-23T21:36:37.514Z,94769.06
2023-02-23T21:39:05.976Z,94753.25
2023-02-23T21:41:33.257Z,94770.56
2023-02-23T21:44:04.481Z,94765.09
2023-02-23T21:46:31.873Z,94770.72
2023-02-23T21:48:58.662Z,94763.78
2023-02-23T21:51:25.851Z,94761.41
2023-02-23T21:53:57.121Z,94765.28
2023-02-23T21:56:23.696Z,94764.94
2023-02-23T21:58:52.247Z,94759.16
2023-02-23T22:01:20.939Z,94763.97
2023-02-23T22:03:48.199Z,94753.34
2023-02-23T22:06:17.299Z,94753.78
2023-02-23T22:08:44.156Z,94749.31
2023-02-23T22:11:16.458Z,94748.63
2023-02-23T22:13:43.824Z,94747.22
2023-02-23T22:16:10.768Z,94749.94
2023-02-23T22:18:37.186Z,94749.66
2023-02-23T22:21:04.033Z,94748.44
2023-02-23T22:23:31.268Z,94745.59
2023-02-23T22:25:58.801Z,94746.41
2023-02-23T22:28:25.986Z,94747.19
2023-02-23T22:30:52.590Z,94740.69
2023-02-23T22:33:19.470Z,94738.31
2023-02-23T22:35:46.420Z,94746.34
2023-02-23T22:38:13.423Z,94750.88
2023-02-23T22:40:41.625Z,94742.44
2023-02-23T22:43:08.448Z,94745.72
2023-02-23T22:45:35.987Z,94746.22
2023-02-23T22:48:05.333Z,94737.63
2023-02-23T22:50:32.969Z,94746.50
2023-02-23T22:53:00.697Z,94738.03
2023-02-23T22:55:28.538Z,94738.94
2023-02-23T22:57:55.312Z,94733.75
2023-02-23T23:00:27.299Z,94724.88
2023-02-23T23:02:55.179Z,94726.75
2023-02-23T23:05:21.590Z,94712.50
2023-02-23T23:07:48.161Z,94731.94
2023-02-23T23:10:16.816Z,94736.41
2023-02-23T23:12:43.587Z,94726.56
2023-02-23T23:15:13.945Z,94729.50
2023-02-23T23:17:45.559Z,94727.31
2023-02-23T23:20:13.896Z,94725.38
2023-02-23T23:22:40.665Z,94721.34
2023-02-23T23:25:13.880Z,94713.09
2023-02-23T23:27:42.288Z,94713.31
2023-02-23T23:30:10.557Z,94712.66
2023-02-23T23:32:38.852Z,94713.03
2023-02-23T23:35:10.243Z,94712.00
2023-02-23T23:37:39.309Z,94708.06
2023-02-23T23:40:13.074Z,94709.75
2023-02-23T23:42:41.506Z,94712.31
2023-02-23T23:45:09.380Z,94709.56
2023-02-23T23:47:35.974Z,94702.41
2023-02-23T23:50:02.784Z,94706.16
2023-02-23T23:52:30.838Z,94705.53
2023-02-23T23:54:58.079Z,94708.09
2023-02-23T23:57:29.994Z,94704.16
2023-02-23T23:59:56.408Z,94691.00
